Andres R — EAKH — position and weather

sailwx.info

Track history (hours):
 
Tides and Currents Weather Stations Pressure Air Temp Water Temp Dewpoint Dewpoint Depression Visibility Wind Speed Wind Dir Waves Ship Positions

Andres R

Last reported at 2018-Feb-19 23:46 UTC. Time now 2018-Feb-21 05:26 UTC.
Position S 05°06' E 011°21'.

Length 32 m.

MMSI: 224510000.

Date/timePositionNaut miles runAvg speedWind from/ knotsBaromVisibWave heightAir tempDewpointWater temp
2018-Feb-19 23:46S 05°06' E 011°21'5 3.1
2018-Feb-19 22:12S 05°10' E 011°24'1 3.1
2018-Feb-19 22:00S 05°11' E 011°24'2 3.1
2018-Feb-19 21:30S 05°12' E 011°25'2 3.1
2018-Feb-19 21:00S 05°13' E 011°25'2 3.3
2018-Feb-19 20:30S 05°15' E 011°26'2 3.2
2018-Feb-19 20:00S 05°17' E 011°26'0 0.6
2018-Feb-19 19:30S 05°17' E 011°26'2 3.0
2018-Feb-19 18:59S 05°15' E 011°25'1 3.0
2018-Feb-19 18:31S 05°14' E 011°25'2 3.0
2018-Feb-19 18:00S 05°13' E 011°24'2 3.0
2018-Feb-19 17:30S 05°11' E 011°24'2 3.1
2018-Feb-19 17:00S 05°10' E 011°23'2 3.1
2018-Feb-19 16:30S 05°08' E 011°22'1 3.1
2018-Feb-19 16:00S 05°07' E 011°22'2 3.1
2018-Feb-19 15:30S 05°06' E 011°21'6 1.8
2018-Feb-19 12:21S 05°01' E 011°25'1 3.1
2018-Feb-19 11:59S 05°02' E 011°26'4 3.4
2018-Feb-19 10:39S 05°06' E 011°28'3 2.7
2018-Feb-19 09:28S 05°03' E 011°26'6 0.7
2018-Feb-19 00:48S 05°06' E 011°21'1 3.1
2018-Feb-19 00:27S 05°07' E 011°22'3 3.1
2018-Feb-18 23:25S 05°10' E 011°23'1 3.1
2018-Feb-18 23:00S 05°11' E 011°24'2 3.1
2018-Feb-18 22:28S 05°12' E 011°24'1 3.1
2018-Feb-18 22:00S 05°14' E 011°25'1 2.7
2018-Feb-18 21:30S 05°15' E 011°25'2 4.3
2018-Feb-18 21:00S 05°17' E 011°26'0 0.8
2018-Feb-18 20:28S 05°17' E 011°26'1 1.5
2018-Feb-18 20:00S 05°16' E 011°25'2 3.1
2018-Feb-18 19:29S 05°14' E 011°25'2 3.1
2018-Feb-18 18:59S 05°13' E 011°25'1 3.1
2018-Feb-18 18:30S 05°12' E 011°24'2 3.1
2018-Feb-18 18:00S 05°10' E 011°23'2 3.1
2018-Feb-18 17:31S 05°09' E 011°23'2 3.1
2018-Feb-18 16:59S 05°07' E 011°22'2 3.1
2018-Feb-18 16:29S 05°06' E 011°21'2 3.1
2018-Feb-18 16:00S 05°05' E 011°21'2 3.1
2018-Feb-18 15:29S 05°03' E 011°20'1 3.0
2018-Feb-18 15:00S 05°02' E 011°19'4 0.3
2018-Feb-18 01:07S 05°05' E 011°21'0 3.1
2018-Feb-18 00:58S 05°06' E 011°21'1 3.1
2018-Feb-18 00:30S 05°07' E 011°22'2 3.1
2018-Feb-18 00:00S 05°08' E 011°22'2 3.1
2018-Feb-17 23:25S 05°10' E 011°23'1 3.1
2018-Feb-17 23:00S 05°11' E 011°24'2 3.1
2018-Feb-17 22:30S 05°13' E 011°24'2 3.1
2018-Feb-17 22:00S 05°14' E 011°25'1 2.5
2018-Feb-17 21:30S 05°15' E 011°25'2 4.4
2018-Feb-17 21:00S 05°17' E 011°26'1 1.4
2018-Feb-17 20:30S 05°18' E 011°26'1 2.1
2018-Feb-17 20:01S 05°17' E 011°26'2 3.0
2018-Feb-17 19:30S 05°15' E 011°25'2 3.0
2018-Feb-17 19:00S 05°14' E 011°25'2 3.1
2018-Feb-17 18:30S 05°13' E 011°24'1 3.0
2018-Feb-17 18:00S 05°11' E 011°24'2 3.0
2018-Feb-17 17:29S 05°10' E 011°23'1 3.0
2018-Feb-17 17:00S 05°08' E 011°22'1 3.0
2018-Feb-17 16:30S 05°07' E 011°22'1 3.0
2018-Feb-17 16:00S 05°06' E 011°21'2 3.0
2018-Feb-17 15:29S 05°04' E 011°20'1 2.6
2018-Feb-17 14:59S 05°03' E 011°20'1 0.1
2018-Feb-17 02:01S 05°04' E 011°20'0 3.0
2018-Feb-17 01:57S 05°04' E 011°21'1 3.0
2018-Feb-17 01:29S 05°06' E 011°21'1 3.0
2018-Feb-17 01:01S 05°07' E 011°22'1 2.8
2018-Feb-17 00:29S 05°08' E 011°22'1 2.9
2018-Feb-17 00:00S 05°09' E 011°23'2 3.0
2018-Feb-16 23:28S 05°11' E 011°24'1 2.5
2018-Feb-16 22:59S 05°12' E 011°24'2 4.1
2018-Feb-16 22:29S 05°13' E 011°26'1 1.9
2018-Feb-16 22:00S 05°13' E 011°27'1 1.3
2018-Feb-16 21:30S 05°14' E 011°26'1 1.6
2018-Feb-16 21:01S 05°14' E 011°26'1 1.4
2018-Feb-16 20:30S 05°15' E 011°25'1 2.2
2018-Feb-16 19:59S 05°14' E 011°25'2 3.1
2018-Feb-16 19:29S 05°12' E 011°24'2 3.1
2018-Feb-16 18:59S 05°11' E 011°24'1 3.0
2018-Feb-16 18:30S 05°10' E 011°23'2 3.1
2018-Feb-16 17:59S 05°08' E 011°22'2 3.1
2018-Feb-16 17:29S 05°07' E 011°22'1 3.0
2018-Feb-16 17:00S 05°05' E 011°21'2 3.0
2018-Feb-16 16:24S 05°04' E 011°20'1 3.1
2018-Feb-16 15:55S 05°03' E 011°19'4 0.2
2018-Feb-15 23:37S 05°06' E 011°21'1 3.0
2018-Feb-15 23:19S 05°07' E 011°21'1 3.1
2018-Feb-15 22:59S 05°08' E 011°22'1 3.1
2018-Feb-15 22:30S 05°09' E 011°23'2 3.1
2018-Feb-15 21:59S 05°10' E 011°23'1 3.1
2018-Feb-15 21:30S 05°12' E 011°24'2 3.1
2018-Feb-15 20:59S 05°13' E 011°25'1 3.1
2018-Feb-15 20:30S 05°14' E 011°25'1 2.5
2018-Feb-15 20:00S 05°16' E 011°25'2 4.3
2018-Feb-15 19:30S 05°18' E 011°26'1 1.1
2018-Feb-15 18:59S 05°18' E 011°26'1 1.5
2018-Feb-15 18:30S 05°17' E 011°26'2 3.0
2018-Feb-15 17:59S 05°16' E 011°25'2 3.0
2018-Feb-15 17:29S 05°14' E 011°25'1 3.1
2018-Feb-15 17:00S 05°13' E 011°25'2 3.1
2018-Feb-15 16:28S 05°12' E 011°24'1 3.1
2018-Feb-15 16:00S 05°10' E 011°23'2 3.1
2018-Feb-15 15:30S 05°09' E 011°23'2 3.1
2018-Feb-15 14:59S 05°07' E 011°22'1 3.0
2018-Feb-15 14:30S 05°06' E 011°21'2 3.0
2018-Feb-15 13:59S 05°05' E 011°21'2 3.1
2018-Feb-15 13:28S 05°03' E 011°20'9 0.6
2018-Feb-14 21:17S 05°12' E 011°24'2 3.0
2018-Feb-14 20:45S 05°13' E 011°24'1 2.1
2018-Feb-14 20:30S 05°14' E 011°25'2 4.8
2018-Feb-14 20:00S 05°16' E 011°25'1 1.5
2018-Feb-14 19:30S 05°16' E 011°26'1 2.2
2018-Feb-14 19:00S 05°15' E 011°26'2 3.0
2018-Feb-14 18:30S 05°14' E 011°25'2 3.1
2018-Feb-14 18:00S 05°13' E 011°24'1 3.1
2018-Feb-14 17:30S 05°11' E 011°24'2 3.0
2018-Feb-14 17:00S 05°10' E 011°23'2 3.1
2018-Feb-14 16:30S 05°08' E 011°22'2 3.1
2018-Feb-14 15:58S 05°07' E 011°22'1 3.1
2018-Feb-14 15:30S 05°06' E 011°21'2 0.1
2018-Feb-13 22:12S 05°07' E 011°23'2 3.1
2018-Feb-13 21:36S 05°09' E 011°24'1 3.1
2018-Feb-13 21:26S 05°09' E 011°24'1 2.2
2018-Feb-13 20:59S 05°10' E 011°24'2 4.6
2018-Feb-13 20:30S 05°12' E 011°24'1 2.1
2018-Feb-13 20:00S 05°13' E 011°25'1 1.8
2018-Feb-13 19:30S 05°12' E 011°24'1 2.8
2018-Feb-13 19:00S 05°11' E 011°24'1 2.9
2018-Feb-13 18:30S 05°10' E 011°23'1 2.9
2018-Feb-13 18:00S 05°09' E 011°22'1 3.0
2018-Feb-13 17:30S 05°07' E 011°22'2 3.0
2018-Feb-13 17:00S 05°06' E 011°21'3 3.0
2018-Feb-13 15:53S 05°03' E 011°19'1 3.0
2018-Feb-13 15:30S 05°02' E 011°19'1 2.5
2018-Feb-13 14:59S 05°01' E 011°18'3 0.2
2018-Feb-12 23:44S 05°04' E 011°20'1 3.1
2018-Feb-12 23:28S 05°04' E 011°20'3 3.1
2018-Feb-12 22:21S 05°08' E 011°22'1 3.1
2018-Feb-12 21:52S 05°09' E 011°23'1 3.1
2018-Feb-12 21:29S 05°10' E 011°23'2 3.1
2018-Feb-12 20:59S 05°11' E 011°24'1 2.6
2018-Feb-12 20:29S 05°12' E 011°24'2 4.4
2018-Feb-12 19:59S 05°15' E 011°25'0 0.3
2018-Feb-12 19:30S 05°15' E 011°25'1 1.5
2018-Feb-12 18:59S 05°14' E 011°25'2 3.1
2018-Feb-12 18:30S 05°12' E 011°24'2 3.1
2018-Feb-12 17:58S 05°11' E 011°24'1 3.1
2018-Feb-12 17:29S 05°10' E 011°23'2 3.1
2018-Feb-12 17:00S 05°08' E 011°22'2 3.1
2018-Feb-12 16:23S 05°07' E 011°21'1 3.1
2018-Feb-12 16:00S 05°06' E 011°21'3 3.1
2018-Feb-12 15:10S 05°03' E 011°20'1 3.1
2018-Feb-12 15:00S 05°03' E 011°19'2 3.1
2018-Feb-12 14:19S 05°01' E 011°18'8 0.5
2018-Feb-11 20:37S 05°08' E 011°22'1 4.1
2018-Feb-11 20:29S 05°09' E 011°23'0 0.9
2018-Feb-11 19:59S 05°08' E 011°22'1 1.6
2018-Feb-11 19:30S 05°08' E 011°22'2 3.1
2018-Feb-11 18:57S 05°06' E 011°21'1 3.1
2018-Feb-11 18:28S 05°05' E 011°21'3 3.1
2018-Feb-11 17:29S 05°02' E 011°19'2 3.1
2018-Feb-11 16:59S 05°01' E 011°19'9 0.5
2018-Feb-10 20:47S 05°09' E 011°23'1 2.6
2018-Feb-10 20:28S 05°10' E 011°23'2 4.2
2018-Feb-10 20:00S 05°11' E 011°24'1 2.8
2018-Feb-10 19:30S 05°13' E 011°25'1 1.0
2018-Feb-10 18:59S 05°12' E 011°25'2 3.1
2018-Feb-10 18:29S 05°11' E 011°24'2 3.0
2018-Feb-10 17:58S 05°09' E 011°23'1 3.0
2018-Feb-10 17:30S 05°08' E 011°23'2 3.0
2018-Feb-10 16:57S 05°07' E 011°22'2 3.1
2018-Feb-10 16:25S 05°05' E 011°21'1 3.1
2018-Feb-10 16:00S 05°04' E 011°21'2 3.0
2018-Feb-10 15:29S 05°03' E 011°20'1 0.1
2018-Feb-10 00:07S 05°04' E 011°20'1 3.1
2018-Feb-09 23:56S 05°05' E 011°21'  
Track history (hours):
 
Tides and Currents Weather Stations Pressure Air Temp Water Temp Dewpoint Dewpoint Depression Visibility Wind Speed Wind Dir Waves Ship Positions

Andres R

Last reported at 2018-Feb-19 23:46 UTC. Time now 2018-Feb-21 05:26 UTC.
Position S 05°06' E 011°21'.

Length 32 m.

MMSI: 224510000.

Date/timePositionNaut miles runAvg speedWind from/ knotsBaromVisibWave heightAir tempDewpointWater temp
2018-Feb-19 23:46S 05°06' E 011°21'5 3.1
2018-Feb-19 22:12S 05°10' E 011°24'1 3.1
2018-Feb-19 22:00S 05°11' E 011°24'2 3.1
2018-Feb-19 21:30S 05°12' E 011°25'2 3.1
2018-Feb-19 21:00S 05°13' E 011°25'2 3.3
2018-Feb-19 20:30S 05°15' E 011°26'2 3.2
2018-Feb-19 20:00S 05°17' E 011°26'0 0.6
2018-Feb-19 19:30S 05°17' E 011°26'2 3.0
2018-Feb-19 18:59S 05°15' E 011°25'1 3.0
2018-Feb-19 18:31S 05°14' E 011°25'2 3.0
2018-Feb-19 18:00S 05°13' E 011°24'2 3.0
2018-Feb-19 17:30S 05°11' E 011°24'2 3.1
2018-Feb-19 17:00S 05°10' E 011°23'2 3.1
2018-Feb-19 16:30S 05°08' E 011°22'1 3.1
2018-Feb-19 16:00S 05°07' E 011°22'2 3.1
2018-Feb-19 15:30S 05°06' E 011°21'6 1.8
2018-Feb-19 12:21S 05°01' E 011°25'1 3.1
2018-Feb-19 11:59S 05°02' E 011°26'4 3.4
2018-Feb-19 10:39S 05°06' E 011°28'3 2.7
2018-Feb-19 09:28S 05°03' E 011°26'6 0.7
2018-Feb-19 00:48S 05°06' E 011°21'1 3.1
2018-Feb-19 00:27S 05°07' E 011°22'3 3.1
2018-Feb-18 23:25S 05°10' E 011°23'1 3.1
2018-Feb-18 23:00S 05°11' E 011°24'2 3.1
2018-Feb-18 22:28S 05°12' E 011°24'1 3.1
2018-Feb-18 22:00S 05°14' E 011°25'1 2.7
2018-Feb-18 21:30S 05°15' E 011°25'2 4.3
2018-Feb-18 21:00S 05°17' E 011°26'0 0.8
2018-Feb-18 20:28S 05°17' E 011°26'1 1.5
2018-Feb-18 20:00S 05°16' E 011°25'2 3.1
2018-Feb-18 19:29S 05°14' E 011°25'2 3.1
2018-Feb-18 18:59S 05°13' E 011°25'1 3.1
2018-Feb-18 18:30S 05°12' E 011°24'2 3.1
2018-Feb-18 18:00S 05°10' E 011°23'2 3.1
2018-Feb-18 17:31S 05°09' E 011°23'2 3.1
2018-Feb-18 16:59S 05°07' E 011°22'2 3.1
2018-Feb-18 16:29S 05°06' E 011°21'2 3.1
2018-Feb-18 16:00S 05°05' E 011°21'2 3.1
2018-Feb-18 15:29S 05°03' E 011°20'1 3.0
2018-Feb-18 15:00S 05°02' E 011°19'4 0.3
2018-Feb-18 01:07S 05°05' E 011°21'0 3.1
2018-Feb-18 00:58S 05°06' E 011°21'1 3.1
2018-Feb-18 00:30S 05°07' E 011°22'2 3.1
2018-Feb-18 00:00S 05°08' E 011°22'2 3.1
2018-Feb-17 23:25S 05°10' E 011°23'1 3.1
2018-Feb-17 23:00S 05°11' E 011°24'2 3.1
2018-Feb-17 22:30S 05°13' E 011°24'2 3.1
2018-Feb-17 22:00S 05°14' E 011°25'1 2.5
2018-Feb-17 21:30S 05°15' E 011°25'2 4.4
2018-Feb-17 21:00S 05°17' E 011°26'1 1.4
2018-Feb-17 20:30S 05°18' E 011°26'1 2.1
2018-Feb-17 20:01S 05°17' E 011°26'2 3.0
2018-Feb-17 19:30S 05°15' E 011°25'2 3.0
2018-Feb-17 19:00S 05°14' E 011°25'2 3.1
2018-Feb-17 18:30S 05°13' E 011°24'1 3.0
2018-Feb-17 18:00S 05°11' E 011°24'2 3.0
2018-Feb-17 17:29S 05°10' E 011°23'1 3.0
2018-Feb-17 17:00S 05°08' E 011°22'1 3.0
2018-Feb-17 16:30S 05°07' E 011°22'1 3.0
2018-Feb-17 16:00S 05°06' E 011°21'2 3.0
2018-Feb-17 15:29S 05°04' E 011°20'1 2.6
2018-Feb-17 14:59S 05°03' E 011°20'1 0.1
2018-Feb-17 02:01S 05°04' E 011°20'0 3.0
2018-Feb-17 01:57S 05°04' E 011°21'1 3.0
2018-Feb-17 01:29S 05°06' E 011°21'1 3.0
2018-Feb-17 01:01S 05°07' E 011°22'1 2.8
2018-Feb-17 00:29S 05°08' E 011°22'1 2.9
2018-Feb-17 00:00S 05°09' E 011°23'2 3.0
2018-Feb-16 23:28S 05°11' E 011°24'1 2.5
2018-Feb-16 22:59S 05°12' E 011°24'2 4.1
2018-Feb-16 22:29S 05°13' E 011°26'1 1.9
2018-Feb-16 22:00S 05°13' E 011°27'1 1.3
2018-Feb-16 21:30S 05°14' E 011°26'1 1.6
2018-Feb-16 21:01S 05°14' E 011°26'1 1.4
2018-Feb-16 20:30S 05°15' E 011°25'1 2.2
2018-Feb-16 19:59S 05°14' E 011°25'2 3.1
2018-Feb-16 19:29S 05°12' E 011°24'2 3.1
2018-Feb-16 18:59S 05°11' E 011°24'1 3.0
2018-Feb-16 18:30S 05°10' E 011°23'2 3.1
2018-Feb-16 17:59S 05°08' E 011°22'2 3.1
2018-Feb-16 17:29S 05°07' E 011°22'1 3.0
2018-Feb-16 17:00S 05°05' E 011°21'2 3.0
2018-Feb-16 16:24S 05°04' E 011°20'1 3.1
2018-Feb-16 15:55S 05°03' E 011°19'4 0.2
2018-Feb-15 23:37S 05°06' E 011°21'1 3.0
2018-Feb-15 23:19S 05°07' E 011°21'1 3.1
2018-Feb-15 22:59S 05°08' E 011°22'1 3.1
2018-Feb-15 22:30S 05°09' E 011°23'2 3.1
2018-Feb-15 21:59S 05°10' E 011°23'1 3.1
2018-Feb-15 21:30S 05°12' E 011°24'2 3.1
2018-Feb-15 20:59S 05°13' E 011°25'1 3.1
2018-Feb-15 20:30S 05°14' E 011°25'1 2.5
2018-Feb-15 20:00S 05°16' E 011°25'2 4.3
2018-Feb-15 19:30S 05°18' E 011°26'1 1.1
2018-Feb-15 18:59S 05°18' E 011°26'1 1.5
2018-Feb-15 18:30S 05°17' E 011°26'2 3.0
2018-Feb-15 17:59S 05°16' E 011°25'2 3.0
2018-Feb-15 17:29S 05°14' E 011°25'1 3.1
2018-Feb-15 17:00S 05°13' E 011°25'2 3.1
2018-Feb-15 16:28S 05°12' E 011°24'1 3.1
2018-Feb-15 16:00S 05°10' E 011°23'2 3.1
2018-Feb-15 15:30S 05°09' E 011°23'2 3.1
2018-Feb-15 14:59S 05°07' E 011°22'1 3.0
2018-Feb-15 14:30S 05°06' E 011°21'2 3.0
2018-Feb-15 13:59S 05°05' E 011°21'2 3.1
2018-Feb-15 13:28S 05°03' E 011°20'9 0.6
2018-Feb-14 21:17S 05°12' E 011°24'2 3.0
2018-Feb-14 20:45S 05°13' E 011°24'1 2.1
2018-Feb-14 20:30S 05°14' E 011°25'2 4.8
2018-Feb-14 20:00S 05°16' E 011°25'1 1.5
2018-Feb-14 19:30S 05°16' E 011°26'1 2.2
2018-Feb-14 19:00S 05°15' E 011°26'2 3.0
2018-Feb-14 18:30S 05°14' E 011°25'2 3.1
2018-Feb-14 18:00S 05°13' E 011°24'1 3.1
2018-Feb-14 17:30S 05°11' E 011°24'2 3.0
2018-Feb-14 17:00S 05°10' E 011°23'2 3.1
2018-Feb-14 16:30S 05°08' E 011°22'2 3.1
2018-Feb-14 15:58S 05°07' E 011°22'1 3.1
2018-Feb-14 15:30S 05°06' E 011°21'2 0.1
2018-Feb-13 22:12S 05°07' E 011°23'2 3.1
2018-Feb-13 21:36S 05°09' E 011°24'1 3.1
2018-Feb-13 21:26S 05°09' E 011°24'1 2.2
2018-Feb-13 20:59S 05°10' E 011°24'2 4.6
2018-Feb-13 20:30S 05°12' E 011°24'1 2.1
2018-Feb-13 20:00S 05°13' E 011°25'1 1.8
2018-Feb-13 19:30S 05°12' E 011°24'1 2.8
2018-Feb-13 19:00S 05°11' E 011°24'1 2.9
2018-Feb-13 18:30S 05°10' E 011°23'1 2.9
2018-Feb-13 18:00S 05°09' E 011°22'1 3.0
2018-Feb-13 17:30S 05°07' E 011°22'2 3.0
2018-Feb-13 17:00S 05°06' E 011°21'3 3.0
2018-Feb-13 15:53S 05°03' E 011°19'1 3.0
2018-Feb-13 15:30S 05°02' E 011°19'1 2.5
2018-Feb-13 14:59S 05°01' E 011°18'3 0.2
2018-Feb-12 23:44S 05°04' E 011°20'1 3.1
2018-Feb-12 23:28S 05°04' E 011°20'3 3.1
2018-Feb-12 22:21S 05°08' E 011°22'1 3.1
2018-Feb-12 21:52S 05°09' E 011°23'1 3.1
2018-Feb-12 21:29S 05°10' E 011°23'2 3.1
2018-Feb-12 20:59S 05°11' E 011°24'1 2.6
2018-Feb-12 20:29S 05°12' E 011°24'2 4.4
2018-Feb-12 19:59S 05°15' E 011°25'0 0.3
2018-Feb-12 19:30S 05°15' E 011°25'1 1.5
2018-Feb-12 18:59S 05°14' E 011°25'2 3.1
2018-Feb-12 18:30S 05°12' E 011°24'2 3.1
2018-Feb-12 17:58S 05°11' E 011°24'1 3.1
2018-Feb-12 17:29S 05°10' E 011°23'2 3.1
2018-Feb-12 17:00S 05°08' E 011°22'2 3.1
2018-Feb-12 16:23S 05°07' E 011°21'1 3.1
2018-Feb-12 16:00S 05°06' E 011°21'3 3.1
2018-Feb-12 15:10S 05°03' E 011°20'1 3.1
2018-Feb-12 15:00S 05°03' E 011°19'2 3.1
2018-Feb-12 14:19S 05°01' E 011°18'8 0.5
2018-Feb-11 20:37S 05°08' E 011°22'1 4.1
2018-Feb-11 20:29S 05°09' E 011°23'0 0.9
2018-Feb-11 19:59S 05°08' E 011°22'1 1.6
2018-Feb-11 19:30S 05°08' E 011°22'2 3.1
2018-Feb-11 18:57S 05°06' E 011°21'1 3.1
2018-Feb-11 18:28S 05°05' E 011°21'3 3.1
2018-Feb-11 17:29S 05°02' E 011°19'2 3.1
2018-Feb-11 16:59S 05°01' E 011°19'9 0.5
2018-Feb-10 20:47S 05°09' E 011°23'1 2.6
2018-Feb-10 20:28S 05°10' E 011°23'2 4.2
2018-Feb-10 20:00S 05°11' E 011°24'1 2.8
2018-Feb-10 19:30S 05°13' E 011°25'1 1.0
2018-Feb-10 18:59S 05°12' E 011°25'2 3.1
2018-Feb-10 18:29S 05°11' E 011°24'2 3.0
2018-Feb-10 17:58S 05°09' E 011°23'1 3.0
2018-Feb-10 17:30S 05°08' E 011°23'2 3.0
2018-Feb-10 16:57S 05°07' E 011°22'2 3.1
2018-Feb-10 16:25S 05°05' E 011°21'1 3.1
2018-Feb-10 16:00S 05°04' E 011°21'2 3.0
2018-Feb-10 15:29S 05°03' E 011°20'1 0.1
2018-Feb-10 00:07S 05°04' E 011°20'1 3.1
2018-Feb-09 23:56S 05°05' E 011°21'  

Dump ship's entire track history